Time;durP1;ratioP1;P1;durP2;ratioP2;P2;SDS_P1;SDS_P2;PMS_P1;PMS_P2;Temp;Humidity;BMP_temperature;BMP_pressure;BME280_temperature;BME280_humidity;BME280_pressure;Samples;Min_cycle;Max_cycle;Signal;HPM_P1;HPM_P2
2022/01/29 00:01:10;;;;;;;75.88;29.80;;;;;;;;;;5027695;27;106342;-66
2022/01/29 00:03:36;;;;;;;80.90;28.73;;;;;;;;;;5026369;27;106086;-66
2022/01/29 00:06:03;;;;;;;78.53;30.35;;;;;;;;;;5030589;27;106333;-66
2022/01/29 00:08:30;;;;;;;82.80;30.70;;;;;;;;;;5029966;27;106372;-65
2022/01/29 00:11:06;;;;;;;83.32;31.08;;;;;;;;;;5031584;27;106980;-65
2022/01/29 00:13:32;;;;;;;81.38;31.10;;;;;;;;;;5029763;27;106683;-64
2022/01/29 00:15:59;;;;;;;70.32;30.23;;;;;;;;;;5022975;27;107386;-65
2022/01/29 00:18:25;;;;;;;79.10;29.02;;;;;;;;;;5030179;27;106380;-64
2022/01/29 00:20:51;;;;;;;83.90;30.30;;;;;;;;;;5031900;27;105797;-66
2022/01/29 00:23:18;;;;;;;81.63;29.50;;;;;;;;;;5030808;27;107320;-66
2022/01/29 00:25:44;;;;;;;73.53;29.38;;;;;;;;;;5022879;27;107361;-63
2022/01/29 00:28:12;;;;;;;87.68;31.23;;;;;;;;;;5027931;27;107529;-64
2022/01/29 00:30:43;;;;;;;80.63;30.83;;;;;;;;;;5030374;27;106251;-64
2022/01/29 00:33:10;;;;;;;74.95;28.75;;;;;;;;;;5030577;27;106056;-64
2022/01/29 00:35:36;;;;;;;76.03;29.42;;;;;;;;;;5030747;27;106859;-64
2022/01/29 00:38:04;;;;;;;79.90;30.23;;;;;;;;;;5028123;27;105848;-64
2022/01/29 00:40:31;;;;;;;78.22;29.67;;;;;;;;;;5028899;27;106826;-64
2022/01/29 00:42:58;;;;;;;75.47;28.80;;;;;;;;;;5029995;27;107100;-64
2022/01/29 00:45:25;;;;;;;74.65;28.75;;;;;;;;;;5034062;27;106181;-63
2022/01/29 00:47:52;;;;;;;77.70;29.33;;;;;;;;;;5028722;27;107373;-65
2022/01/29 00:50:19;;;;;;;78.72;29.25;;;;;;;;;;5028670;27;105657;-65
2022/01/29 00:52:47;;;;;;;75.72;27.05;;;;;;;;;;5028226;27;106104;-65
2022/01/29 00:55:13;;;;;;;77.88;26.70;;;;;;;;;;5021414;27;107775;-66
2022/01/29 00:57:40;;;;;;;71.75;26.63;;;;;;;;;;5023882;27;106038;-66
2022/01/29 01:00:08;;;;;;;76.13;28.30;;;;;;;;;;5028544;27;107876;-66
2022/01/29 01:02:34;;;;;;;80.38;26.95;;;;;;;;;;5030140;27;107085;-65
2022/01/29 01:05:02;;;;;;;66.43;24.40;;;;;;;;;;5032122;27;106561;-65
2022/01/29 01:07:28;;;;;;;70.20;26.05;;;;;;;;;;5028396;27;106271;-65
2022/01/29 01:09:55;;;;;;;73.75;24.95;;;;;;;;;;5029836;27;106246;-65
2022/01/29 01:12:21;;;;;;;69.68;25.05;;;;;;;;;;5029315;27;106008;-66
2022/01/29 01:14:48;;;;;;;70.88;25.10;;;;;;;;;;5014652;27;107809;-66
2022/01/29 01:17:14;;;;;;;76.07;27.30;;;;;;;;;;5028750;27;107080;-66
2022/01/29 01:19:40;;;;;;;64.05;25.85;;;;;;;;;;5030140;27;107064;-65
2022/01/29 01:22:07;;;;;;;74.50;25.48;;;;;;;;;;5026367;27;107412;-67
2022/01/29 01:24:34;;;;;;;69.85;24.73;;;;;;;;;;5029782;27;106141;-66
2022/01/29 01:27:01;;;;;;;59.67;22.75;;;;;;;;;;5030695;27;106468;-65
2022/01/29 01:29:27;;;;;;;67.18;25.10;;;;;;;;;;5027887;27;106846;-64
2022/01/29 01:31:54;;;;;;;66.43;24.40;;;;;;;;;;5028387;27;106893;-65
2022/01/29 01:34:23;;;;;;;67.63;25.98;;;;;;;;;;5025796;27;107310;-65
2022/01/29 01:36:59;;;;;;;67.30;24.52;;;;;;;;;;5019303;27;106148;-64
2022/01/29 01:39:30;;;;;;;63.38;25.00;;;;;;;;;;5019791;27;107257;-64
2022/01/29 01:42:07;;;;;;;73.65;25.48;;;;;;;;;;5027288;27;106753;-64
2022/01/29 01:44:43;;;;;;;64.13;24.35;;;;;;;;;;5025280;27;106312;-64
2022/01/29 01:47:10;;;;;;;71.13;25.65;;;;;;;;;;5028206;27;107127;-66
2022/01/29 01:49:36;;;;;;;66.55;25.02;;;;;;;;;;5032832;27;107377;-65
2022/01/29 01:52:04;;;;;;;77.45;25.90;;;;;;;;;;5028629;27;106235;-64
2022/01/29 01:54:31;;;;;;;67.47;24.98;;;;;;;;;;5022833;27;108331;-66
2022/01/29 01:56:58;;;;;;;62.42;24.25;;;;;;;;;;5025061;27;105968;-65
2022/01/29 01:59:24;;;;;;;69.88;26.45;;;;;;;;;;5026990;27;106039;-66
2022/01/29 02:01:51;;;;;;;64.10;23.85;;;;;;;;;;5027791;27;107760;-66
2022/01/29 02:04:23;;;;;;;69.47;26.58;;;;;;;;;;5019776;27;106102;-64
2022/01/29 02:06:51;;;;;;;71.30;23.77;;;;;;;;;;4943780;28;107411;-65
2022/01/29 02:09:20;;;;;;;56.08;22.23;;;;;;;;;;4948307;28;106370;-65
2022/01/29 02:11:54;;;;;;;61.83;22.67;;;;;;;;;;4951881;28;106555;-65
2022/01/29 02:14:24;;;;;;;61.70;23.77;;;;;;;;;;4949296;28;107754;-65
2022/01/29 02:16:50;;;;;;;61.35;23.35;;;;;;;;;;4948831;28;106016;-65
2022/01/29 02:19:17;;;;;;;61.58;22.65;;;;;;;;;;4949163;28;106748;-65
2022/01/29 02:21:43;;;;;;;68.60;23.85;;;;;;;;;;4946763;28;107675;-64
2022/01/29 02:24:10;;;;;;;62.70;22.17;;;;;;;;;;4949590;28;106063;-65
2022/01/29 02:26:36;;;;;;;54.60;21.30;;;;;;;;;;4948588;28;107570;-65
2022/01/29 02:29:03;;;;;;;52.85;20.45;;;;;;;;;;4947521;28;106229;-64
2022/01/29 02:31:29;;;;;;;48.88;19.42;;;;;;;;;;4948715;28;105956;-64
2022/01/29 02:33:56;;;;;;;51.95;20.55;;;;;;;;;;4951598;28;106982;-64
2022/01/29 02:36:22;;;;;;;43.05;15.55;;;;;;;;;;4947599;28;107283;-64
2022/01/29 02:38:48;;;;;;;40.00;17.35;;;;;;;;;;4948658;28;107094;-65
2022/01/29 02:41:15;;;;;;;46.38;18.60;;;;;;;;;;4947725;28;108328;-64
2022/01/29 02:43:46;;;;;;;47.58;18.40;;;;;;;;;;4948506;28;106830;-64
2022/01/29 02:48:44;;;;;;;47.30;17.85;;;;;;;;;;4947137;28;106506;-64
2022/01/29 02:51:10;;;;;;;46.17;17.23;;;;;;;;;;4947238;28;106158;-65
2022/01/29 02:53:37;;;;;;;41.85;17.25;;;;;;;;;;4948924;28;106912;-65
2022/01/29 02:56:03;;;;;;;45.90;17.48;;;;;;;;;;4950177;28;109312;-65
2022/01/29 02:58:30;;;;;;;46.13;17.95;;;;;;;;;;4948845;28;106802;-64
2022/01/29 03:00:56;;;;;;;40.85;17.30;;;;;;;;;;4947503;28;108549;-65
2022/01/29 03:03:24;;;;;;;46.25;17.35;;;;;;;;;;4948933;28;106257;-64
2022/01/29 03:05:51;;;;;;;44.63;18.23;;;;;;;;;;4947194;28;108527;-66
2022/01/29 03:08:18;;;;;;;52.20;18.98;;;;;;;;;;4946847;28;107610;-65
2022/01/29 03:10:47;;;;;;;51.90;18.92;;;;;;;;;;4948168;28;106891;-65
2022/01/29 03:13:14;;;;;;;51.13;18.90;;;;;;;;;;4947603;28;106317;-65
2022/01/29 03:15:40;;;;;;;53.20;19.80;;;;;;;;;;4950829;28;106341;-65
2022/01/29 03:18:06;;;;;;;53.30;19.63;;;;;;;;;;4948535;28;107343;-65
2022/01/29 03:20:33;;;;;;;62.08;20.75;;;;;;;;;;4946451;28;110637;-65
2022/01/29 03:22:59;;;;;;;58.97;20.40;;;;;;;;;;4946289;28;106347;-65
2022/01/29 03:25:26;;;;;;;50.45;19.77;;;;;;;;;;4947337;28;106647;-65
2022/01/29 03:27:52;;;;;;;62.90;20.20;;;;;;;;;;4948044;28;107914;-64
2022/01/29 03:30:19;;;;;;;65.82;22.05;;;;;;;;;;4948197;28;107541;-65
2022/01/29 03:32:45;;;;;;;49.38;20.45;;;;;;;;;;4947792;28;107715;-65
2022/01/29 03:35:12;;;;;;;60.10;21.13;;;;;;;;;;4945747;28;107414;-65
2022/01/29 03:37:39;;;;;;;60.58;22.45;;;;;;;;;;4950678;28;106428;-65
2022/01/29 03:40:07;;;;;;;56.20;21.27;;;;;;;;;;4949515;28;106315;-66
2022/01/29 03:42:39;;;;;;;61.60;22.13;;;;;;;;;;4952589;28;107225;-65
2022/01/29 03:45:07;;;;;;;63.15;22.33;;;;;;;;;;4949311;28;106247;-65
2022/01/29 03:47:34;;;;;;;67.57;23.08;;;;;;;;;;4952349;28;106374;-65
2022/01/29 03:50:00;;;;;;;66.20;22.92;;;;;;;;;;4936315;28;107886;-65
2022/01/29 03:52:26;;;;;;;66.93;22.58;;;;;;;;;;4950498;28;106535;-65
2022/01/29 03:54:53;;;;;;;63.75;23.70;;;;;;;;;;4950088;28;108334;-65
2022/01/29 03:57:19;;;;;;;60.75;22.80;;;;;;;;;;4950420;28;106478;-65
2022/01/29 03:59:45;;;;;;;65.72;23.20;;;;;;;;;;4954411;28;106854;-65
2022/01/29 04:02:12;;;;;;;65.60;22.95;;;;;;;;;;4930647;28;107412;-66
2022/01/29 04:04:38;;;;;;;60.63;21.88;;;;;;;;;;4946050;28;106370;-65
2022/01/29 04:07:10;;;;;;;71.80;22.83;;;;;;;;;;4950339;28;107814;-66
2022/01/29 04:09:37;;;;;;;66.78;22.83;;;;;;;;;;4950566;28;105602;-65
2022/01/29 04:12:04;;;;;;;73.00;21.20;;;;;;;;;;4951737;28;106342;-67
2022/01/29 04:14:36;;;;;;;78.32;22.95;;;;;;;;;;4949510;28;106589;-65
2022/01/29 04:17:04;;;;;;;77.93;23.10;;;;;;;;;;4951224;28;106254;-66
2022/01/29 04:19:30;;;;;;;70.25;21.45;;;;;;;;;;4951535;28;107842;-66
2022/01/29 04:21:57;;;;;;;65.97;22.25;;;;;;;;;;4953325;28;108037;-65
2022/01/29 04:24:23;;;;;;;68.13;23.40;;;;;;;;;;4948709;28;106787;-65
2022/01/29 04:26:50;;;;;;;74.55;22.83;;;;;;;;;;4949972;28;107334;-66
2022/01/29 04:29:17;;;;;;;66.78;22.80;;;;;;;;;;4949861;28;106343;-65
2022/01/29 04:31:57;;;;;;;70.65;21.75;;;;;;;;;;4951520;28;106762;-66
2022/01/29 04:34:24;;;;;;;60.17;20.70;;;;;;;;;;4948743;28;107463;-65
2022/01/29 04:36:51;;;;;;;62.25;21.15;;;;;;;;;;4948648;28;106626;-66
2022/01/29 04:39:22;;;;;;;77.32;20.92;;;;;;;;;;4949639;28;107205;-64
2022/01/29 04:41:49;;;;;;;66.72;21.30;;;;;;;;;;4951074;28;108289;-64
2022/01/29 04:44:17;;;;;;;62.08;20.65;;;;;;;;;;4953028;28;106440;-65
2022/01/29 04:46:44;;;;;;;62.05;21.65;;;;;;;;;;4950395;28;106448;-65
2022/01/29 04:49:10;;;;;;;57.92;21.02;;;;;;;;;;4949250;28;107459;-65
2022/01/29 04:51:36;;;;;;;63.95;20.85;;;;;;;;;;4950240;28;108124;-65
2022/01/29 04:54:03;;;;;;;66.50;21.55;;;;;;;;;;4949825;28;106202;-66
2022/01/29 04:56:29;;;;;;;67.35;21.67;;;;;;;;;;4950386;28;106431;-64
2022/01/29 04:58:55;;;;;;;62.15;21.50;;;;;;;;;;4949311;28;106758;-65
2022/01/29 05:01:22;;;;;;;62.72;22.77;;;;;;;;;;4948452;28;107953;-65
2022/01/29 05:03:48;;;;;;;67.60;22.65;;;;;;;;;;4950079;28;106348;-65
2022/01/29 05:06:15;;;;;;;67.85;21.83;;;;;;;;;;4952339;28;107571;-65
2022/01/29 05:08:41;;;;;;;69.40;21.77;;;;;;;;;;4950146;28;106973;-65
2022/01/29 05:11:08;;;;;;;66.88;21.73;;;;;;;;;;4949656;28;106016;-66
2022/01/29 05:13:38;;;;;;;64.50;22.63;;;;;;;;;;4950548;28;107119;-69
2022/01/29 05:26:59;;;;;;;71.32;23.08;;;;;;;;;;4941903;28;106673;-64
2022/01/29 05:29:30;;;;;;;58.30;22.17;;;;;;;;;;4949069;28;107184;-64
2022/01/29 05:31:57;;;;;;;54.22;20.85;;;;;;;;;;4950944;28;106634;-64
2022/01/29 05:34:23;;;;;;;52.58;21.70;;;;;;;;;;4950756;28;107653;-65
2022/01/29 05:36:50;;;;;;;57.90;20.75;;;;;;;;;;4949592;28;106203;-64
2022/01/29 05:39:16;;;;;;;54.72;21.63;;;;;;;;;;4948867;28;106618;-64
2022/01/29 05:41:43;;;;;;;58.83;21.02;;;;;;;;;;4934250;28;107542;-65
2022/01/29 05:44:09;;;;;;;52.33;20.33;;;;;;;;;;4948901;28;108133;-65
2022/01/29 05:46:36;;;;;;;52.65;19.63;;;;;;;;;;4949748;28;106804;-64
2022/01/29 05:49:02;;;;;;;49.50;19.33;;;;;;;;;;4931818;28;108806;-64
2022/01/29 05:51:30;;;;;;;48.05;19.23;;;;;;;;;;4947438;28;106903;-64
2022/01/29 05:53:59;;;;;;;53.30;19.80;;;;;;;;;;4948477;28;107291;-64
2022/01/29 05:56:26;;;;;;;51.22;19.08;;;;;;;;;;4948656;28;106462;-64
2022/01/29 05:58:53;;;;;;;45.20;18.60;;;;;;;;;;4949357;28;106130;-64
2022/01/29 06:01:19;;;;;;;40.50;17.50;;;;;;;;;;4948301;28;106269;-65
2022/01/29 06:03:46;;;;;;;35.28;16.42;;;;;;;;;;4948212;28;106423;-65
2022/01/29 06:06:12;;;;;;;39.22;16.88;;;;;;;;;;4946961;28;107227;-64
2022/01/29 06:08:39;;;;;;;43.20;17.33;;;;;;;;;;4948428;28;107342;-65
2022/01/29 06:11:05;;;;;;;41.45;15.77;;;;;;;;;;4953672;28;106261;-65
2022/01/29 06:13:32;;;;;;;50.13;16.63;;;;;;;;;;4947148;28;108217;-64
2022/01/29 06:16:00;;;;;;;38.15;14.57;;;;;;;;;;4948522;28;105966;-64
2022/01/29 06:18:27;;;;;;;39.60;16.07;;;;;;;;;;4946407;28;108673;-64
2022/01/29 06:21:03;;;;;;;31.40;13.70;;;;;;;;;;4949148;28;107686;-64
2022/01/29 06:23:34;;;;;;;37.83;15.73;;;;;;;;;;4948117;28;106149;-64
2022/01/29 06:26:02;;;;;;;38.35;15.95;;;;;;;;;;4949236;28;107435;-64
2022/01/29 06:28:29;;;;;;;44.30;15.27;;;;;;;;;;4946689;28;106214;-64
2022/01/29 06:30:55;;;;;;;44.17;16.00;;;;;;;;;;4945042;28;106084;-65
2022/01/29 06:33:22;;;;;;;40.70;15.77;;;;;;;;;;4951854;28;107774;-65
2022/01/29 06:35:48;;;;;;;50.08;15.48;;;;;;;;;;4946906;28;106237;-64
2022/01/29 06:38:15;;;;;;;42.92;16.50;;;;;;;;;;4947712;28;106920;-64
2022/01/29 06:40:42;;;;;;;49.75;17.83;;;;;;;;;;4947857;28;107333;-65
2022/01/29 06:43:08;;;;;;;46.60;18.05;;;;;;;;;;4948418;28;106188;-65
2022/01/29 06:45:35;;;;;;;47.80;17.27;;;;;;;;;;4948777;28;106929;-64
2022/01/29 06:48:02;;;;;;;46.35;17.17;;;;;;;;;;4948767;28;106871;-65
2022/01/29 06:50:29;;;;;;;46.50;17.45;;;;;;;;;;4948802;28;105707;-64
2022/01/29 06:52:56;;;;;;;45.05;16.75;;;;;;;;;;4948283;28;106244;-65
2022/01/29 06:55:23;;;;;;;53.42;17.45;;;;;;;;;;4950222;28;107434;-65
2022/01/29 06:57:49;;;;;;;48.97;18.48;;;;;;;;;;4948859;28;106786;-65
2022/01/29 07:00:35;;;;;;;50.53;17.95;;;;;;;;;;4947845;28;107381;-64
2022/01/29 07:03:02;;;;;;;61.10;18.85;;;;;;;;;;4930229;28;105969;-65
2022/01/29 07:05:28;;;;;;;52.38;19.17;;;;;;;;;;4946846;28;106301;-65
2022/01/29 07:07:55;;;;;;;53.40;19.40;;;;;;;;;;4947850;28;107955;-64
2022/01/29 07:10:21;;;;;;;49.05;19.40;;;;;;;;;;4948311;28;106298;-64
2022/01/29 07:12:48;;;;;;;45.97;19.00;;;;;;;;;;4947669;28;106107;-65
2022/01/29 07:15:14;;;;;;;49.58;19.70;;;;;;;;;;4947078;28;107459;-65
2022/01/29 07:17:41;;;;;;;57.00;20.33;;;;;;;;;;4959945;28;106658;-65
2022/01/29 07:20:07;;;;;;;37.92;16.70;;;;;;;;;;4946233;28;106257;-66
2022/01/29 07:22:34;;;;;;;54.70;19.35;;;;;;;;;;4949093;28;106228;-65
2022/01/29 07:25:00;;;;;;;63.03;20.10;;;;;;;;;;4947479;28;107554;-65
2022/01/29 07:27:27;;;;;;;53.85;19.88;;;;;;;;;;4947334;28;107030;-65
2022/01/29 07:29:53;;;;;;;56.13;19.95;;;;;;;;;;4945153;28;107913;-65
2022/01/29 07:32:20;;;;;;;57.17;20.48;;;;;;;;;;4949134;28;107298;-65
2022/01/29 07:34:46;;;;;;;47.83;19.35;;;;;;;;;;4947402;28;108052;-65
2022/01/29 07:37:12;;;;;;;54.03;19.90;;;;;;;;;;4950337;28;106565;-65
2022/01/29 07:39:39;;;;;;;51.75;19.02;;;;;;;;;;4947459;28;106775;-65
2022/01/29 07:42:06;;;;;;;43.78;17.33;;;;;;;;;;4948026;28;106351;-65
2022/01/29 07:44:32;;;;;;;57.83;18.08;;;;;;;;;;4934623;28;108186;-65
2022/01/29 07:46:59;;;;;;;49.40;17.35;;;;;;;;;;4947468;28;107877;-65
2022/01/29 07:49:25;;;;;;;39.28;16.20;;;;;;;;;;4947431;28;107985;-65
2022/01/29 07:51:52;;;;;;;43.15;16.58;;;;;;;;;;4936778;28;107019;-65
2022/01/29 07:54:19;;;;;;;40.97;15.80;;;;;;;;;;4946922;28;107261;-65
2022/01/29 07:56:45;;;;;;;48.63;17.13;;;;;;;;;;4947954;28;107020;-65
2022/01/29 07:59:12;;;;;;;43.67;15.70;;;;;;;;;;4950670;28;107094;-64
2022/01/29 08:01:38;;;;;;;51.75;16.38;;;;;;;;;;4948369;28;106187;-67
2022/01/29 08:04:05;;;;;;;44.90;16.13;;;;;;;;;;4946699;28;106916;-67
2022/01/29 08:06:31;;;;;;;38.97;14.98;;;;;;;;;;4946432;28;108379;-66
2022/01/29 08:08:57;;;;;;;44.28;14.93;;;;;;;;;;4947516;28;106444;-64
2022/01/29 08:11:24;;;;;;;51.20;15.60;;;;;;;;;;4947021;28;106545;-64
2022/01/29 08:13:51;;;;;;;39.63;14.25;;;;;;;;;;4948174;28;107467;-65
2022/01/29 08:16:17;;;;;;;40.83;14.35;;;;;;;;;;4946774;28;106430;-66
2022/01/29 08:18:45;;;;;;;39.45;14.85;;;;;;;;;;4947656;28;106796;-65
2022/01/29 08:21:15;;;;;;;45.00;14.45;;;;;;;;;;4949040;28;107790;-66
2022/01/29 08:23:42;;;;;;;45.97;15.18;;;;;;;;;;4948995;28;106179;-65
2022/01/29 08:26:09;;;;;;;33.75;12.82;;;;;;;;;;4946480;28;107318;-65
2022/01/29 08:28:35;;;;;;;36.72;13.77;;;;;;;;;;4951147;28;105480;-64
2022/01/29 08:31:02;;;;;;;45.45;14.48;;;;;;;;;;4950478;28;106733;-68
2022/01/29 08:33:28;;;;;;;40.35;13.27;;;;;;;;;;4951178;28;106121;-67
2022/01/29 08:35:56;;;;;;;40.47;13.98;;;;;;;;;;4947427;28;106815;-65
2022/01/29 08:38:23;;;;;;;36.42;13.35;;;;;;;;;;4951025;28;106731;-67
2022/01/29 08:40:50;;;;;;;35.90;13.65;;;;;;;;;;4948928;28;106346;-68
2022/01/29 08:43:16;;;;;;;49.50;13.50;;;;;;;;;;4954172;28;105995;-66
2022/01/29 08:45:43;;;;;;;39.00;13.25;;;;;;;;;;4949166;28;107749;-66
2022/01/29 08:48:09;;;;;;;41.58;14.43;;;;;;;;;;4949455;28;106544;-66
2022/01/29 08:50:35;;;;;;;30.13;12.90;;;;;;;;;;4945672;28;106107;-66
2022/01/29 08:53:02;;;;;;;40.13;13.43;;;;;;;;;;4950605;28;108024;-66
2022/01/29 08:55:36;;;;;;;44.70;12.50;;;;;;;;;;4949870;28;106112;-65
2022/01/29 08:58:06;;;;;;;33.95;12.82;;;;;;;;;;4950297;28;106832;-66
2022/01/29 09:00:32;;;;;;;36.88;11.93;;;;;;;;;;4951363;28;107580;-66
2022/01/29 09:02:59;;;;;;;37.58;12.05;;;;;;;;;;4951464;28;106176;-66
2022/01/29 09:05:25;;;;;;;35.78;12.23;;;;;;;;;;4951364;28;106894;-65
2022/01/29 09:07:52;;;;;;;35.50;11.70;;;;;;;;;;4949609;28;107012;-65
2022/01/29 09:10:18;;;;;;;29.85;10.77;;;;;;;;;;4950005;28;106809;-66
2022/01/29 09:12:45;;;;;;;34.78;12.70;;;;;;;;;;4949341;28;108626;-65
2022/01/29 09:15:11;;;;;;;40.72;10.65;;;;;;;;;;4948429;28;106250;-69
2022/01/29 09:17:39;;;;;;;31.58;11.20;;;;;;;;;;4946636;28;105831;-69
2022/01/29 09:20:09;;;;;;;26.65;10.18;;;;;;;;;;4949755;28;107258;-68
2022/01/29 09:22:37;;;;;;;26.48;9.25;;;;;;;;;;4933918;28;105794;-67
2022/01/29 09:25:04;;;;;;;31.75;9.23;;;;;;;;;;4931309;28;106304;-67
2022/01/29 09:27:30;;;;;;;22.35;9.48;;;;;;;;;;4952347;28;106473;-67
2022/01/29 09:29:56;;;;;;;32.08;9.32;;;;;;;;;;4948924;28;107291;-67
2022/01/29 09:32:23;;;;;;;29.20;9.27;;;;;;;;;;4948946;28;107394;-67
2022/01/29 09:34:50;;;;;;;34.72;8.75;;;;;;;;;;4948981;28;106571;-67
2022/01/29 09:37:16;;;;;;;25.83;8.95;;;;;;;;;;4964185;28;106233;-67
2022/01/29 09:39:43;;;;;;;20.65;7.95;;;;;;;;;;4949643;28;107217;-67
2022/01/29 09:42:09;;;;;;;20.15;8.32;;;;;;;;;;4948409;28;107149;-66
2022/01/29 09:44:36;;;;;;;24.98;7.47;;;;;;;;;;4949035;28;108032;-66
2022/01/29 09:47:04;;;;;;;19.75;6.40;;;;;;;;;;4952896;28;107516;-69
2022/01/29 09:49:33;;;;;;;26.85;6.72;;;;;;;;;;4949773;28;106979;-67
2022/01/29 09:52:03;;;;;;;21.10;6.60;;;;;;;;;;4948563;28;107528;-66
2022/01/29 09:54:29;;;;;;;22.35;6.18;;;;;;;;;;4947875;28;106252;-66
2022/01/29 09:56:56;;;;;;;17.05;6.10;;;;;;;;;;4949332;28;107139;-67
2022/01/29 09:59:22;;;;;;;18.60;6.40;;;;;;;;;;4948687;28;106217;-68
2022/01/29 10:01:49;;;;;;;15.02;5.55;;;;;;;;;;4954961;28;106086;-67
2022/01/29 10:04:16;;;;;;;20.55;6.07;;;;;;;;;;4933487;28;107602;-70
2022/01/29 10:06:45;;;;;;;18.65;5.72;;;;;;;;;;4947719;28;106248;-67
2022/01/29 10:09:31;;;;;;;22.63;6.47;;;;;;;;;;4952607;28;106358;-67
2022/01/29 10:12:14;;;;;;;23.58;6.57;;;;;;;;;;4948885;28;106907;-67
2022/01/29 10:15:03;;;;;;;18.13;5.20;;;;;;;;;;4948199;28;106889;-65
2022/01/29 10:17:38;;;;;;;20.13;5.25;;;;;;;;;;4948702;28;106746;-65
2022/01/29 10:20:08;;;;;;;20.08;4.97;;;;;;;;;;4946609;28;108183;-66
2022/01/29 10:22:35;;;;;;;15.88;4.53;;;;;;;;;;4948994;28;108443;-67
2022/01/29 10:25:06;;;;;;;18.05;5.25;;;;;;;;;;4947401;28;106969;-67
2022/01/29 10:27:32;;;;;;;13.52;4.57;;;;;;;;;;4947735;28;107394;-66
2022/01/29 10:30:09;;;;;;;14.65;4.28;;;;;;;;;;4948464;28;105903;-65
2022/01/29 10:32:36;;;;;;;14.63;4.13;;;;;;;;;;4951229;28;107222;-68
2022/01/29 10:35:03;;;;;;;17.35;4.18;;;;;;;;;;4947806;28;107777;-70
2022/01/29 10:37:29;;;;;;;15.13;4.10;;;;;;;;;;4948629;28;108450;-68
2022/01/29 10:39:57;;;;;;;13.60;3.92;;;;;;;;;;4948117;28;106346;-67
2022/01/29 10:42:25;;;;;;;15.18;4.63;;;;;;;;;;4946755;28;106418;-67
2022/01/29 10:44:53;;;;;;;14.93;3.30;;;;;;;;;;4945135;28;107300;-67
2022/01/29 10:47:19;;;;;;;15.80;4.22;;;;;;;;;;4947030;28;107396;-69
2022/01/29 10:49:52;;;;;;;12.68;3.35;;;;;;;;;;4946189;28;106272;-68
2022/01/29 10:52:25;;;;;;;12.45;3.22;;;;;;;;;;4946478;28;107043;-68
2022/01/29 10:54:59;;;;;;;11.20;3.92;;;;;;;;;;4949876;28;107343;-67
2022/01/29 10:57:41;;;;;;;13.40;2.88;;;;;;;;;;4948908;28;106559;-69
2022/01/29 11:00:08;;;;;;;9.23;3.05;;;;;;;;;;4945699;28;107424;-70
2022/01/29 11:02:34;;;;;;;16.83;3.65;;;;;;;;;;4948002;28;106441;-65
2022/01/29 11:05:03;;;;;;;15.95;3.05;;;;;;;;;;4945576;28;106953;-67
2022/01/29 11:07:30;;;;;;;13.80;2.58;;;;;;;;;;4946784;28;107874;-68
2022/01/29 11:09:59;;;;;;;11.20;2.53;;;;;;;;;;4947826;28;106723;-66
2022/01/29 11:12:38;;;;;;;11.33;2.60;;;;;;;;;;4948552;28;107129;-65
2022/01/29 11:15:05;;;;;;;17.73;2.78;;;;;;;;;;4946932;28;107732;-65
2022/01/29 11:17:32;;;;;;;11.38;2.40;;;;;;;;;;4952605;28;106057;-65
2022/01/29 11:19:59;;;;;;;17.70;2.80;;;;;;;;;;4946769;28;107382;-65
2022/01/29 11:22:32;;;;;;;12.77;2.25;;;;;;;;;;4947676;28;106243;-68
2022/01/29 11:25:00;;;;;;;12.15;2.33;;;;;;;;;;4947995;28;106535;-66
2022/01/29 11:27:27;;;;;;;13.30;2.22;;;;;;;;;;4946194;28;108672;-65
2022/01/29 11:29:57;;;;;;;11.18;1.85;;;;;;;;;;4946999;28;106642;-66
2022/01/29 11:32:25;;;;;;;10.88;2.55;;;;;;;;;;4946889;28;106967;-66
2022/01/29 11:35:03;;;;;;;5.10;2.25;;;;;;;;;;4943528;28;107206;-65
2022/01/29 11:37:36;;;;;;;11.13;2.13;;;;;;;;;;4949288;28;106180;-66
2022/01/29 11:40:22;;;;;;;9.02;2.22;;;;;;;;;;4946540;28;107370;-66
2022/01/29 11:43:06;;;;;;;10.48;2.22;;;;;;;;;;4947063;28;107074;-67
2022/01/29 11:45:45;;;;;;;11.68;2.10;;;;;;;;;;4948235;28;106767;-65
2022/01/29 11:48:25;;;;;;;10.32;1.88;;;;;;;;;;4945913;28;107610;-65
2022/01/29 11:50:55;;;;;;;6.97;1.77;;;;;;;;;;4940839;28;107460;-65
2022/01/29 11:53:22;;;;;;;9.55;2.10;;;;;;;;;;4943823;28;106984;-66
2022/01/29 11:55:51;;;;;;;11.18;2.47;;;;;;;;;;4945850;28;107495;-66
2022/01/29 11:58:19;;;;;;;14.93;2.45;;;;;;;;;;4945236;28;106047;-65
2022/01/29 12:00:48;;;;;;;13.57;2.97;;;;;;;;;;4933276;28;108471;-66
2022/01/29 12:03:44;;;;;;;7.72;2.20;;;;;;;;;;4950096;28;105832;-65
2022/01/29 12:06:28;;;;;;;8.57;2.92;;;;;;;;;;4949585;28;106419;-65
2022/01/29 12:11:27;;;;;;;10.77;2.70;;;;;;;;;;4950346;28;107237;-65
2022/01/29 12:14:11;;;;;;;7.93;2.60;;;;;;;;;;4958292;28;106681;-64
2022/01/29 12:16:49;;;;;;;10.23;2.50;;;;;;;;;;4945392;28;107793;-65
2022/01/29 12:19:42;;;;;;;8.02;3.03;;;;;;;;;;4938031;28;106709;-65
2022/01/29 12:22:15;;;;;;;7.88;2.22;;;;;;;;;;4947047;28;106760;-65
2022/01/29 12:24:47;;;;;;;10.27;2.28;;;;;;;;;;4952013;28;107418;-65
2022/01/29 12:27:13;;;;;;;13.90;2.67;;;;;;;;;;4946578;28;107161;-65
2022/01/29 12:29:40;;;;;;;12.93;2.30;;;;;;;;;;4949877;28;106504;-66
2022/01/29 12:32:08;;;;;;;8.48;2.40;;;;;;;;;;4938278;28;106304;-66
2022/01/29 12:34:38;;;;;;;14.15;2.70;;;;;;;;;;4950359;28;108044;-65
2022/01/29 12:37:10;;;;;;;8.40;2.25;;;;;;;;;;4949251;28;107677;-66
2022/01/29 12:39:37;;;;;;;8.43;2.40;;;;;;;;;;4949527;28;106548;-66
2022/01/29 12:42:23;;;;;;;12.40;2.30;;;;;;;;;;4949669;28;107363;-66
2022/01/29 12:44:52;;;;;;;12.82;2.45;;;;;;;;;;4949594;28;106201;-65
2022/01/29 12:47:26;;;;;;;16.58;2.10;;;;;;;;;;4953776;28;105932;-65
2022/01/29 12:49:53;;;;;;;13.27;2.20;;;;;;;;;;4934307;28;109076;-65
2022/01/29 12:52:19;;;;;;;11.10;2.20;;;;;;;;;;4948683;28;107490;-65
2022/01/29 12:54:53;;;;;;;9.57;2.10;;;;;;;;;;4950737;28;106896;-65
2022/01/29 12:57:20;;;;;;;7.38;2.10;;;;;;;;;;4946832;28;107637;-66
2022/01/29 12:59:47;;;;;;;7.63;2.22;;;;;;;;;;4949972;28;107207;-66
2022/01/29 13:02:33;;;;;;;10.40;2.42;;;;;;;;;;4950313;28;106538;-66
2022/01/29 13:05:01;;;;;;;6.63;2.05;;;;;;;;;;4947560;28;108002;-66
2022/01/29 13:07:27;;;;;;;8.70;2.95;;;;;;;;;;4943899;28;107014;-67
2022/01/29 13:09:55;;;;;;;8.25;1.90;;;;;;;;;;4953263;28;107542;-66
2022/01/29 13:12:22;;;;;;;11.30;2.47;;;;;;;;;;4947918;28;107383;-66
2022/01/29 13:14:49;;;;;;;7.05;2.00;;;;;;;;;;4947696;28;106752;-67
2022/01/29 13:17:16;;;;;;;6.55;1.90;;;;;;;;;;4948974;28;107095;-69
2022/01/29 13:19:44;;;;;;;9.50;2.05;;;;;;;;;;4945590;28;106968;-67
2022/01/29 13:22:11;;;;;;;7.72;2.13;;;;;;;;;;4949701;28;106887;-67
2022/01/29 13:24:39;;;;;;;10.20;2.25;;;;;;;;;;4949867;28;106266;-67
2022/01/29 13:27:13;;;;;;;7.50;2.00;;;;;;;;;;4949362;28;105976;-67
2022/01/29 13:29:40;;;;;;;9.93;2.45;;;;;;;;;;4949457;28;106170;-66
2022/01/29 13:32:08;;;;;;;10.23;1.95;;;;;;;;;;4951111;28;107385;-66
2022/01/29 13:34:39;;;;;;;8.05;1.98;;;;;;;;;;4944764;28;106830;-66
2022/01/29 13:37:25;;;;;;;9.75;2.20;;;;;;;;;;4949389;28;108411;-66
2022/01/29 13:39:52;;;;;;;8.45;2.25;;;;;;;;;;4950562;28;106926;-67
2022/01/29 13:42:20;;;;;;;4.25;1.80;;;;;;;;;;4935752;28;107488;-67
2022/01/29 13:45:05;;;;;;;8.80;2.47;;;;;;;;;;4936321;28;107377;-68
2022/01/29 13:47:32;;;;;;;9.30;1.98;;;;;;;;;;4942960;28;105859;-65
2022/01/29 13:50:18;;;;;;;5.28;1.65;;;;;;;;;;4946410;28;106954;-68
2022/01/29 13:53:02;;;;;;;6.88;2.00;;;;;;;;;;4950975;28;107391;-66
2022/01/29 13:55:28;;;;;;;8.55;1.70;;;;;;;;;;4946306;28;106219;-67
2022/01/29 13:58:02;;;;;;;7.82;2.20;;;;;;;;;;4949512;28;106494;-67
2022/01/29 14:00:29;;;;;;;7.38;2.08;;;;;;;;;;4948916;28;106530;-67
2022/01/29 14:02:55;;;;;;;8.55;1.98;;;;;;;;;;4950018;28;106794;-67
2022/01/29 14:05:23;;;;;;;8.75;1.80;;;;;;;;;;4941460;28;106543;-68
2022/01/29 14:07:50;;;;;;;6.68;1.70;;;;;;;;;;4948503;28;106099;-69
2022/01/29 14:10:36;;;;;;;7.88;2.10;;;;;;;;;;4927362;28;108392;-68
2022/01/29 14:13:03;;;;;;;10.48;2.50;;;;;;;;;;4945815;28;107626;-66
2022/01/29 14:15:32;;;;;;;10.60;2.17;;;;;;;;;;4951292;28;106086;-68
2022/01/29 14:17:58;;;;;;;10.63;2.23;;;;;;;;;;4949317;28;106363;-68
2022/01/29 14:20:26;;;;;;;5.80;1.50;;;;;;;;;;4943594;28;106125;-68
2022/01/29 14:22:53;;;;;;;7.65;1.67;;;;;;;;;;4943368;28;107701;-67
2022/01/29 14:25:20;;;;;;;11.50;1.65;;;;;;;;;;4945753;28;108044;-66
2022/01/29 14:27:48;;;;;;;9.35;1.80;;;;;;;;;;4950755;28;107269;-68
2022/01/29 14:30:14;;;;;;;10.88;1.90;;;;;;;;;;4944060;28;107411;-68
2022/01/29 14:32:41;;;;;;;14.75;2.20;;;;;;;;;;4946058;28;107845;-66
2022/01/29 14:35:09;;;;;;;7.50;1.55;;;;;;;;;;4946563;28;107360;-67